createdAt,value
2023-04-16T00:00:56.237Z,100663.97
2023-04-16T00:03:24.453Z,100698.16
2023-04-16T00:05:55.985Z,100697.91
2023-04-16T00:08:27.113Z,100683.34
2023-04-16T00:10:54.799Z,100676.88
2023-04-16T00:13:22.809Z,100626.25
2023-04-16T00:15:51.327Z,100693.34
2023-04-16T00:18:20.814Z,100690.91
2023-04-16T00:20:49.233Z,100676.84
2023-04-16T00:23:17.619Z,100620.06
2023-04-16T00:25:45.366Z,100626.84
2023-04-16T00:28:13.097Z,100696.16
2023-04-16T00:30:40.823Z,100649.31
2023-04-16T00:33:08.676Z,100667.91
2023-04-16T00:35:37.670Z,100604.63
2023-04-16T00:38:05.683Z,100666.88
2023-04-16T00:40:33.377Z,100665.25
2023-04-16T00:43:01.069Z,100678.25
2023-04-16T00:45:29.286Z,100676.84
2023-04-16T00:47:59.295Z,100663.50
2023-04-16T00:50:28.273Z,100654.91
2023-04-16T00:52:57.030Z,100662.72
2023-04-16T00:55:24.941Z,100653.78
2023-04-16T00:57:53.486Z,100635.47
2023-04-16T01:00:37.450Z,100643.53
2023-04-16T01:03:06.243Z,100656.09
2023-04-16T01:05:34.401Z,100675.34
2023-04-16T01:08:02.260Z,100663.16
2023-04-16T01:10:30.042Z,100644.78
2023-04-16T01:12:57.906Z,100658.75
2023-04-16T01:15:28.182Z,100679.59
2023-04-16T01:17:55.995Z,100642.53
2023-04-16T01:20:26.673Z,100624.75
2023-04-16T01:22:54.593Z,100640.16
2023-04-16T01:25:23.778Z,100667.72
2023-04-16T01:27:52.649Z,100645.31
2023-04-16T01:30:21.462Z,100630.13
2023-04-16T01:33:02.787Z,100605.81
2023-04-16T01:35:31.263Z,100671.00
2023-04-16T01:37:59.146Z,100647.22
2023-04-16T01:40:26.851Z,100656.16
2023-04-16T01:42:54.512Z,100623.16
2023-04-16T01:45:22.263Z,100652.63
2023-04-16T01:47:51.334Z,100673.19
2023-04-16T01:50:21.543Z,100637.19
2023-04-16T01:52:49.833Z,100674.06
2023-04-16T01:55:17.652Z,100663.78
2023-04-16T01:57:45.533Z,100691.91
2023-04-16T02:00:14.472Z,100640.22
2023-04-16T02:02:49.434Z,100663.50
2023-04-16T02:05:26.046Z,100703.38
2023-04-16T02:07:53.950Z,100635.66
2023-04-16T02:10:22.329Z,100662.44
2023-04-16T02:12:52.212Z,100649.75
2023-04-16T02:15:20.034Z,100682.78
2023-04-16T02:17:49.056Z,100689.00
2023-04-16T02:20:17.880Z,100673.63
2023-04-16T02:22:54.220Z,100689.31
2023-04-16T02:25:24.500Z,100658.03
2023-04-16T02:27:55.373Z,100668.09
2023-04-16T02:30:38.891Z,100672.97
2023-04-16T02:33:10.780Z,100699.50
2023-04-16T02:35:41.482Z,100668.44
2023-04-16T02:38:09.647Z,100641.94
2023-04-16T02:40:37.818Z,100666.78
2023-04-16T02:43:05.488Z,100662.69
2023-04-16T02:45:34.740Z,100634.88
2023-04-16T02:48:02.727Z,100597.84
2023-04-16T02:50:30.616Z,100638.69
2023-04-16T02:52:58.519Z,100699.84
2023-04-16T02:55:26.224Z,100663.56
2023-04-16T02:57:54.344Z,100698.19
2023-04-16T03:00:22.753Z,100691.44
2023-04-16T03:02:50.568Z,100656.50
2023-04-16T03:05:18.743Z,100628.09
2023-04-16T03:07:47.562Z,100625.63
2023-04-16T03:10:16.825Z,100693.38
2023-04-16T03:12:44.547Z,100650.63
2023-04-16T03:15:12.396Z,100672.75
2023-04-16T03:17:40.157Z,100666.00
2023-04-16T03:20:08.525Z,100667.84
2023-04-16T03:22:36.110Z,100676.22
2023-04-16T03:25:04.180Z,100676.44
2023-04-16T03:27:32.978Z,100634.28
2023-04-16T03:30:00.972Z,100659.69
2023-04-16T03:32:29.121Z,100676.50
2023-04-16T03:34:56.940Z,100636.16
2023-04-16T03:37:24.600Z,100672.44
2023-04-16T03:39:52.566Z,100611.25
2023-04-16T03:42:20.338Z,100645.13
2023-04-16T03:44:48.221Z,100665.66
2023-04-16T03:47:17.130Z,100630.75
2023-04-16T03:49:45.970Z,100637.00
2023-04-16T03:52:13.863Z,100670.03
2023-04-16T03:54:41.516Z,100660.88
2023-04-16T03:57:24.806Z,100671.44
2023-04-16T03:59:55.863Z,100666.31
2023-04-16T04:02:24.720Z,100665.28
2023-04-16T04:04:53.366Z,100658.19
2023-04-16T04:07:21.209Z,100680.13
2023-04-16T04:09:48.987Z,100674.44
2023-04-16T04:12:16.855Z,100619.75
2023-04-16T04:14:46.340Z,100646.56
2023-04-16T04:17:14.031Z,100628.94
2023-04-16T04:19:47.162Z,100668.53
2023-04-16T04:22:22.691Z,100672.56
2023-04-16T04:24:50.672Z,100638.22
2023-04-16T04:27:18.397Z,100652.59
2023-04-16T04:29:46.523Z,100609.53
2023-04-16T04:32:14.353Z,100669.66
2023-04-16T04:34:43.130Z,100668.56
2023-04-16T04:37:11.091Z,100666.13
2023-04-16T04:39:39.196Z,100636.63
2023-04-16T04:42:08.881Z,100585.25
2023-04-16T04:44:36.595Z,100666.94
2023-04-16T04:47:04.488Z,100663.69
2023-04-16T04:49:32.532Z,100648.59
2023-04-16T04:52:01.511Z,100677.28
2023-04-16T04:54:31.086Z,100586.34
2023-04-16T04:56:59.910Z,100568.25
2023-04-16T04:59:29.153Z,100687.66
2023-04-16T05:01:57.196Z,100693.31
2023-04-16T05:04:24.977Z,100631.59
2023-04-16T05:06:52.724Z,100661.16
2023-04-16T05:09:20.394Z,100671.94
2023-04-16T05:11:48.292Z,100689.78
2023-04-16T05:14:17.518Z,100666.72
2023-04-16T05:16:45.712Z,100678.91
2023-04-16T05:19:13.588Z,100593.41
2023-04-16T05:21:41.408Z,100677.28
2023-04-16T05:24:09.216Z,100680.00
2023-04-16T05:26:37.055Z,100666.44
2023-04-16T05:29:04.811Z,100657.00
2023-04-16T05:31:33.066Z,100677.59
2023-04-16T05:34:00.857Z,100707.16
2023-04-16T05:36:28.516Z,100689.28
2023-04-16T05:38:56.197Z,100672.22
2023-04-16T05:41:25.633Z,100703.38
2023-04-16T05:43:53.418Z,100697.94
2023-04-16T05:46:21.351Z,100644.84
2023-04-16T05:48:49.072Z,100697.63
2023-04-16T05:51:16.866Z,100641.63
2023-04-16T05:53:44.680Z,100669.78
2023-04-16T05:56:12.296Z,100711.78
2023-04-16T05:58:40.470Z,100695.84
2023-04-16T06:01:08.442Z,100707.22
2023-04-16T06:03:36.300Z,100689.34
2023-04-16T06:06:04.245Z,100639.28
2023-04-16T06:08:31.902Z,100728.38
2023-04-16T06:10:59.817Z,100670.66
2023-04-16T06:13:27.614Z,100724.88
2023-04-16T06:15:56.773Z,100734.63
2023-04-16T06:18:24.583Z,100716.47
2023-04-16T06:20:52.984Z,100725.16
2023-04-16T06:23:20.872Z,100693.78
2023-04-16T06:25:48.610Z,100704.06
2023-04-16T06:28:16.511Z,100708.41
2023-04-16T06:30:44.761Z,100744.69
2023-04-16T06:33:13.853Z,100746.91
2023-04-16T06:35:42.183Z,100697.03
2023-04-16T06:38:09.865Z,100715.97
2023-04-16T06:40:38.179Z,100754.47
2023-04-16T06:43:06.245Z,100742.06
2023-04-16T06:45:35.224Z,100708.44
2023-04-16T06:48:04.044Z,100764.25
2023-04-16T06:50:32.423Z,100762.63
2023-04-16T06:53:00.337Z,100693.22
2023-04-16T06:55:28.079Z,100757.91
2023-04-16T06:58:03.919Z,100754.59
2023-04-16T07:00:31.820Z,100761.41
2023-04-16T07:03:02.031Z,100728.88
2023-04-16T07:05:30.165Z,100696.34
2023-04-16T07:08:00.056Z,100750.44
2023-04-16T07:10:30.299Z,100727.16
2023-04-16T07:12:58.155Z,100744.78
2023-04-16T07:15:26.240Z,100666.25
2023-04-16T07:17:53.953Z,100737.47
2023-04-16T07:20:21.620Z,100744.78
2023-04-16T07:22:49.662Z,100707.09
2023-04-16T07:25:19.549Z,100747.13
2023-04-16T07:27:47.771Z,100721.38
2023-04-16T07:30:15.877Z,100735.19
2023-04-16T07:32:44.128Z,100725.03
2023-04-16T07:35:12.082Z,100737.22
2023-04-16T07:37:39.954Z,100745.06
2023-04-16T07:40:08.442Z,100707.22
2023-04-16T07:42:36.406Z,100729.41
2023-04-16T07:45:04.648Z,100620.00
2023-04-16T07:47:32.581Z,100711.69
2023-04-16T07:50:01.102Z,100674.84
2023-04-16T07:52:29.019Z,100735.09
2023-04-16T07:54:56.880Z,100673.63
2023-04-16T07:57:25.134Z,100725.81
2023-04-16T07:59:52.997Z,100728.16
2023-04-16T08:02:21.294Z,100718.38
2023-04-16T08:04:49.412Z,100725.09
2023-04-16T08:07:17.256Z,100697.22
2023-04-16T08:10:03.254Z,100729.44
2023-04-16T08:12:32.314Z,100678.78
2023-04-16T08:15:00.202Z,100705.81
2023-04-16T08:17:29.646Z,100714.72
2023-04-16T08:19:57.382Z,100697.38
2023-04-16T08:22:25.200Z,100723.84
2023-04-16T08:24:52.977Z,100723.34
2023-04-16T08:27:20.974Z,100683.03
2023-04-16T08:29:49.942Z,100693.09
2023-04-16T08:32:17.839Z,100727.69
2023-04-16T08:34:45.886Z,100678.75
2023-04-16T08:37:13.641Z,100681.78
2023-04-16T08:39:41.549Z,100709.69
2023-04-16T08:42:19.228Z,100742.41
2023-04-16T08:44:50.103Z,100703.16
2023-04-16T08:47:18.103Z,100706.66
2023-04-16T08:49:46.350Z,100740.38
2023-04-16T08:52:18.602Z,100738.41
2023-04-16T08:55:07.254Z,100743.97
2023-04-16T08:57:40.982Z,100736.31
2023-04-16T09:00:10.154Z,100721.72
2023-04-16T09:02:38.658Z,100706.06
2023-04-16T09:05:08.044Z,100749.06
2023-04-16T09:07:37.449Z,100740.09
2023-04-16T09:10:07.287Z,100743.25
2023-04-16T09:12:36.092Z,100715.59
2023-04-16T09:15:11.446Z,100742.19
2023-04-16T09:17:40.247Z,100716.97
2023-04-16T09:20:09.608Z,100712.97
2023-04-16T09:22:38.569Z,100694.53
2023-04-16T09:25:07.773Z,100700.28
2023-04-16T09:27:37.313Z,100486.88
2023-04-16T09:30:26.701Z,100595.59
2023-04-16T09:33:23.262Z,100751.41
2023-04-16T09:35:57.802Z,100766.75
2023-04-16T09:38:32.312Z,100748.97
2023-04-16T09:41:08.975Z,100469.59
2023-04-16T09:43:42.255Z,100669.16
2023-04-16T09:46:13.142Z,100461.97
2023-04-16T09:48:46.232Z,100740.38
2023-04-16T09:51:14.147Z,100704.41
2023-04-16T09:53:42.432Z,100759.00
2023-04-16T09:56:11.930Z,100750.81
2023-04-16T09:58:40.045Z,100740.31
2023-04-16T10:01:11.844Z,100752.13
2023-04-16T10:03:41.014Z,100710.91
2023-04-16T10:06:20.067Z,100759.50
2023-04-16T10:30:20.044Z,100577.88
2023-04-16T10:33:08.090Z,100772.13
2023-04-16T10:36:06.719Z,100778.75
2023-04-16T10:38:50.821Z,100518.94
2023-04-16T10:41:22.723Z,100589.97
2023-04-16T10:43:51.708Z,100626.25
2023-04-16T10:46:26.917Z,100656.03
2023-04-16T10:48:56.594Z,100712.84
2023-04-16T10:51:30.226Z,100731.28
2023-04-16T10:54:23.116Z,100750.03
2023-04-16T10:56:51.891Z,100687.81
2023-04-16T10:59:21.592Z,100685.09
2023-04-16T11:01:53.248Z,100750.03
2023-04-16T11:04:21.529Z,100752.75
2023-04-16T11:07:14.002Z,100699.63
2023-04-16T11:09:47.014Z,100690.28
2023-04-16T11:12:21.320Z,100725.09
2023-04-16T11:14:51.568Z,100693.50
2023-04-16T11:17:20.615Z,100711.34
2023-04-16T11:19:48.894Z,100703.94
2023-04-16T11:22:18.006Z,100670.09
2023-04-16T11:24:49.290Z,100717.72
2023-04-16T11:27:17.127Z,100702.47
2023-04-16T11:29:47.465Z,100716.25
2023-04-16T11:32:24.639Z,100703.06
2023-04-16T11:34:52.387Z,100691.91
2023-04-16T11:37:36.126Z,100583.78
2023-04-16T11:40:10.043Z,100681.81
2023-04-16T11:42:42.895Z,100655.56
2023-04-16T11:45:12.425Z,100701.53
2023-04-16T11:47:52.453Z,100648.59
2023-04-16T11:50:20.497Z,100704.53
2023-04-16T11:52:49.316Z,100701.59
2023-04-16T11:55:17.351Z,100642.16
2023-04-16T11:57:49.201Z,100653.59
2023-04-16T12:00:24.458Z,100696.88
2023-04-16T12:02:55.061Z,100686.56
2023-04-16T12:05:31.187Z,100668.34
2023-04-16T12:08:01.849Z,100687.22
2023-04-16T12:10:31.203Z,100664.81
2023-04-16T12:13:16.610Z,100694.44
2023-04-16T12:16:03.225Z,100688.72
2023-04-16T12:18:31.383Z,100668.66
2023-04-16T12:20:59.060Z,100678.25
2023-04-16T12:23:28.616Z,100660.41
2023-04-16T12:26:02.647Z,100678.41
2023-04-16T12:28:35.660Z,100687.69
2023-04-16T12:31:04.147Z,100667.69
2023-04-16T12:33:32.461Z,100616.31
2023-04-16T12:36:00.539Z,100631.47
2023-04-16T12:38:29.320Z,100612.94
2023-04-16T12:40:58.499Z,100616.88
2023-04-16T12:43:26.660Z,100669.84
2023-04-16T12:45:54.696Z,100621.88
2023-04-16T12:48:22.915Z,100661.00
2023-04-16T12:50:54.875Z,100621.72
2023-04-16T12:53:23.039Z,100645.44
2023-04-16T12:55:50.784Z,100614.59
2023-04-16T12:58:18.648Z,100543.25
2023-04-16T13:00:46.462Z,100660.88
2023-04-16T13:03:14.518Z,100614.09
2023-04-16T13:05:42.327Z,100627.25
2023-04-16T13:08:10.165Z,100668.38
2023-04-16T13:10:38.337Z,100545.66
2023-04-16T13:13:06.158Z,100655.34
2023-04-16T13:15:33.901Z,100581.31
2023-04-16T13:18:01.820Z,100638.81
2023-04-16T13:20:29.699Z,100642.22
2023-04-16T13:22:57.700Z,100641.09
2023-04-16T13:25:25.593Z,100625.72
2023-04-16T13:27:53.524Z,100631.38
2023-04-16T13:30:21.235Z,100639.41
2023-04-16T13:32:49.463Z,100611.78
2023-04-16T13:35:17.383Z,100627.97
2023-04-16T13:37:45.148Z,100599.25
2023-04-16T13:40:13.120Z,100577.19
2023-04-16T13:42:41.015Z,100611.91
2023-04-16T13:45:12.020Z,100602.78
2023-04-16T13:47:42.580Z,100611.91
2023-04-16T13:50:11.413Z,100611.63
2023-04-16T13:52:39.235Z,100604.53
2023-04-16T13:55:07.253Z,100570.50
2023-04-16T13:57:35.080Z,100533.81
2023-04-16T14:00:03.737Z,100549.69
2023-04-16T14:02:33.046Z,100588.84
2023-04-16T14:05:01.327Z,100533.50
2023-04-16T14:07:29.467Z,100515.91
2023-04-16T14:09:57.367Z,100538.78
2023-04-16T14:12:25.403Z,100559.47
2023-04-16T14:14:53.202Z,100513.31
2023-04-16T14:17:21.036Z,100523.59
2023-04-16T14:19:48.815Z,100535.19
2023-04-16T14:22:18.133Z,100571.09
2023-04-16T14:24:46.486Z,100550.75
2023-04-16T14:27:14.404Z,100532.63
2023-04-16T14:29:42.305Z,100537.56
2023-04-16T14:32:10.184Z,100528.19
2023-04-16T14:34:38.145Z,100498.06
2023-04-16T14:37:06.729Z,100549.81
2023-04-16T14:39:34.594Z,100562.84
2023-04-16T14:42:02.682Z,100554.97
2023-04-16T14:44:31.174Z,100500.00
2023-04-16T14:46:59.224Z,100452.97
2023-04-16T14:49:27.196Z,100539.28
2023-04-16T14:51:56.950Z,100506.88
2023-04-16T14:54:24.735Z,100540.09
2023-04-16T14:56:52.676Z,100527.25
2023-04-16T14:59:20.350Z,100531.53
2023-04-16T15:01:48.468Z,100512.69
2023-04-16T15:04:17.047Z,100553.97
2023-04-16T15:06:46.550Z,100532.63
2023-04-16T15:09:14.550Z,100538.09
2023-04-16T15:11:42.719Z,100502.38
2023-04-16T15:14:13.381Z,100406.81
2023-04-16T15:16:41.366Z,100489.13
2023-04-16T15:19:09.613Z,100486.41
2023-04-16T15:21:37.663Z,100410.75
2023-04-16T15:24:05.871Z,100480.72
2023-04-16T15:26:34.231Z,100416.25
2023-04-16T15:29:02.310Z,100493.19
2023-04-16T15:31:30.461Z,100519.06
2023-04-16T15:34:00.347Z,100407.91
2023-04-16T15:36:28.328Z,100460.78
2023-04-16T15:38:59.069Z,100513.63
2023-04-16T15:41:30.604Z,100398.81
2023-04-16T15:43:58.301Z,100338.53
2023-04-16T15:46:26.367Z,100477.41
2023-04-16T15:48:54.475Z,100458.41
2023-04-16T15:51:23.458Z,100437.66
2023-04-16T15:53:51.232Z,100471.38
2023-04-16T15:56:19.034Z,100499.16
2023-04-16T15:58:47.141Z,100499.16
2023-04-16T16:01:15.122Z,100487.34
2023-04-16T16:03:44.200Z,100489.97
2023-04-16T16:06:12.325Z,100419.34
2023-04-16T16:08:42.203Z,100488.44
2023-04-16T16:11:10.156Z,100502.09
2023-04-16T16:13:37.964Z,100508.66
2023-04-16T16:16:06.197Z,100501.59
2023-04-16T16:18:34.176Z,100503.22
2023-04-16T16:21:01.874Z,100404.81
2023-04-16T16:23:29.761Z,100437.25
2023-04-16T16:25:57.851Z,100388.50
2023-04-16T16:28:26.431Z,100517.16
2023-04-16T16:30:55.850Z,100511.78
2023-04-16T16:33:23.965Z,100493.69
2023-04-16T16:35:54.020Z,100508.25
2023-04-16T16:38:21.873Z,100503.28
2023-04-16T16:40:49.628Z,100450.00
2023-04-16T16:43:17.833Z,100472.41
2023-04-16T16:45:46.593Z,100504.59
2023-04-16T16:48:14.355Z,100519.16
2023-04-16T16:50:42.136Z,100523.19
2023-04-16T16:53:09.845Z,100493.13
2023-04-16T16:55:37.562Z,100476.34
2023-04-16T16:58:05.543Z,100514.69
2023-04-16T17:00:33.481Z,100550.59
2023-04-16T17:03:01.838Z,100343.97
2023-04-16T17:05:30.283Z,100432.16
2023-04-16T17:07:58.118Z,100295.00
2023-04-16T17:10:26.466Z,100536.56
2023-04-16T17:12:54.600Z,100500.41
2023-04-16T17:15:28.631Z,100396.75
2023-04-16T17:18:03.581Z,100227.19
2023-04-16T17:21:16.386Z,100406.81
2023-04-16T17:23:49.113Z,100228.78
2023-04-16T17:26:20.456Z,100234.28
2023-04-16T17:28:48.881Z,100323.81
2023-04-16T17:31:20.334Z,100303.56
2023-04-16T17:33:51.495Z,100275.53
2023-04-16T17:36:29.256Z,100338.25
2023-04-16T17:39:00.587Z,100280.81
2023-04-16T17:41:32.013Z,100291.34
2023-04-16T17:44:03.361Z,100269.94
2023-04-16T17:46:34.249Z,100248.06
2023-04-16T17:49:03.521Z,100428.78
2023-04-16T17:51:35.101Z,100231.03
2023-04-16T17:54:38.840Z,100567.69
2023-04-16T17:57:17.995Z,100469.41
2023-04-16T18:00:16.491Z,100355.16
2023-04-16T18:02:47.397Z,100406.78
2023-04-16T18:05:20.991Z,100543.75
2023-04-16T18:07:54.928Z,100307.00
2023-04-16T18:10:30.573Z,100384.81
2023-04-16T18:13:01.595Z,100318.03
2023-04-16T18:15:38.227Z,100508.91
2023-04-16T18:18:10.426Z,100319.22
2023-04-16T18:20:47.804Z,100326.22
2023-04-16T18:23:18.068Z,100326.28
2023-04-16T18:25:48.835Z,100367.59
2023-04-16T18:28:18.513Z,100308.31
2023-04-16T18:30:47.213Z,100306.94
2023-04-16T18:35:47.054Z,100580.50
2023-04-16T18:38:15.189Z,100492.38
2023-04-16T18:40:43.063Z,100458.72
2023-04-16T18:43:12.574Z,100565.44
2023-04-16T18:45:42.120Z,100442.03
2023-04-16T18:48:10.719Z,100491.69
2023-04-16T18:50:38.886Z,100498.44
2023-04-16T18:53:07.085Z,100423.44
2023-04-16T18:55:35.453Z,100344.28
2023-04-16T18:58:04.681Z,100439.47
2023-04-16T19:00:33.292Z,100507.59
2023-04-16T19:03:07.164Z,100503.31
2023-04-16T19:05:35.593Z,100395.19
2023-04-16T19:08:03.725Z,100339.53
2023-04-16T19:10:32.819Z,100457.22
2023-04-16T19:13:01.003Z,100600.88
2023-04-16T19:15:31.562Z,100601.25
2023-04-16T19:18:01.018Z,100441.53
2023-04-16T19:20:29.207Z,100365.28
2023-04-16T19:23:01.291Z,100597.19
2023-04-16T19:25:34.072Z,100428.03
2023-04-16T19:28:02.007Z,100509.84
2023-04-16T19:30:31.593Z,100401.13
2023-04-16T19:33:01.856Z,100402.50
2023-04-16T19:35:31.380Z,100633.53
2023-04-16T19:38:01.043Z,100436.75
2023-04-16T19:40:28.949Z,100614.66
2023-04-16T19:42:57.732Z,100563.63
2023-04-16T19:45:27.707Z,100478.34
2023-04-16T19:50:24.823Z,100447.34
2023-04-16T19:52:52.716Z,100332.19
2023-04-16T19:55:20.579Z,100530.22
2023-04-16T19:57:51.190Z,100352.34
2023-04-16T20:00:19.217Z,100466.38
2023-04-16T20:02:47.306Z,100446.41
2023-04-16T20:05:15.808Z,100469.81
2023-04-16T20:07:43.798Z,100556.63
2023-04-16T20:10:12.150Z,100624.16
2023-04-16T20:12:40.120Z,100625.94
2023-04-16T20:15:08.776Z,100361.19
2023-04-16T20:17:37.308Z,100385.00
2023-04-16T20:20:10.319Z,100612.84
2023-04-16T20:22:39.051Z,100459.69
2023-04-16T20:25:07.834Z,100577.78
2023-04-16T20:27:36.267Z,100509.75
2023-04-16T20:30:06.321Z,100649.44
2023-04-16T20:32:36.891Z,100521.78
2023-04-16T20:35:10.279Z,100640.00
2023-04-16T20:37:39.032Z,100601.19
2023-04-16T20:40:09.117Z,100651.72
2023-04-16T20:42:37.005Z,100653.50
2023-04-16T20:45:05.464Z,100612.94
2023-04-16T20:47:36.051Z,100599.56
2023-04-16T20:50:04.420Z,100550.66
2023-04-16T20:52:32.982Z,100497.34
2023-04-16T20:55:04.131Z,100539.19
2023-04-16T20:57:35.225Z,100451.34
2023-04-16T21:00:05.900Z,100376.63
2023-04-16T21:02:34.437Z,100614.66
2023-04-16T21:05:02.615Z,100370.66
2023-04-16T21:07:30.745Z,100466.78
2023-04-16T21:10:00.889Z,100584.94
2023-04-16T21:12:29.085Z,100622.03
2023-04-16T21:14:57.721Z,100602.19
2023-04-16T21:17:29.119Z,100501.81
2023-04-16T21:19:58.600Z,100554.59
2023-04-16T21:22:26.368Z,100640.53
2023-04-16T21:24:54.095Z,100546.94
2023-04-16T21:27:21.795Z,100617.47
2023-04-16T21:29:49.673Z,100603.09
2023-04-16T21:32:17.664Z,100635.09
2023-04-16T21:34:45.779Z,100635.09
2023-04-16T21:37:13.456Z,100592.41
2023-04-16T21:39:41.285Z,100627.19
2023-04-16T21:42:12.219Z,100601.09
2023-04-16T21:44:40.153Z,100487.72
2023-04-16T21:47:08.005Z,100562.22
2023-04-16T21:49:35.896Z,100432.81
2023-04-16T21:52:03.757Z,100565.16
2023-04-16T21:54:31.754Z,100470.22
2023-04-16T21:56:59.969Z,100559.69
2023-04-16T21:59:28.198Z,100441.50
2023-04-16T22:01:56.286Z,100502.19
2023-04-16T22:04:26.644Z,100471.53
2023-04-16T22:06:56.573Z,100594.31
2023-04-16T22:09:27.048Z,100463.56
2023-04-16T22:11:54.864Z,100497.00
2023-04-16T22:14:22.914Z,100552.16
2023-04-16T22:16:51.783Z,100616.56
2023-04-16T22:19:19.989Z,100601.31
2023-04-16T22:21:50.164Z,100506.81
2023-04-16T22:24:17.985Z,100586.97
2023-04-16T22:26:46.012Z,100422.16
2023-04-16T22:29:14.034Z,100460.53
2023-04-16T22:31:41.887Z,100447.13
2023-04-16T22:34:09.793Z,100612.75
2023-04-16T22:36:37.470Z,100589.81
2023-04-16T22:39:08.740Z,100563.06
2023-04-16T22:41:36.848Z,100421.34
2023-04-16T22:44:04.830Z,100564.63
2023-04-16T22:46:32.838Z,100348.00
2023-04-16T22:49:01.137Z,100411.06
2023-04-16T22:51:29.746Z,100596.47
2023-04-16T22:53:57.500Z,100576.97
2023-04-16T22:56:29.029Z,100560.56
2023-04-16T22:58:57.214Z,100616.56
2023-04-16T23:01:25.289Z,100574.59
2023-04-16T23:03:53.131Z,100600.53
2023-04-16T23:06:21.141Z,100580.91
2023-04-16T23:08:48.856Z,100539.28
2023-04-16T23:11:16.763Z,100567.94
2023-04-16T23:13:45.083Z,100610.06
2023-04-16T23:16:12.789Z,100585.78
2023-04-16T23:18:41.015Z,100588.66
2023-04-16T23:21:08.698Z,100579.75
2023-04-16T23:23:36.867Z,100533.53
2023-04-16T23:26:05.102Z,100592.72
2023-04-16T23:28:33.604Z,100527.28
2023-04-16T23:31:01.473Z,100541.88
2023-04-16T23:33:29.336Z,100438.06
2023-04-16T23:35:57.243Z,100377.59
2023-04-16T23:38:25.245Z,100301.38
2023-04-16T23:40:53.346Z,100340.03
2023-04-16T23:43:21.329Z,100566.31
2023-04-16T23:45:49.180Z,100478.00
2023-04-16T23:48:17.067Z,100509.00
2023-04-16T23:50:45.149Z,100533.69
2023-04-16T23:53:13.189Z,100488.91
2023-04-16T23:55:41.085Z,100419.78
2023-04-16T23:58:09.048Z,100306.03
